Beechgrove, TN (37018)

1:37 PM CDT on May 25, 2015 (GMT -0500)
New Union | | Change Station
CLOSE
Current Station
Personal Weather Station
Location: Manchester, TN
Elevation: 1102 ft
Nearby Weather Stations

Elev 1102 ft 35.53 °N, 86.08 °W | Updated 11 minutes ago

Mostly Cloudy
Mostly Cloudy
74.5 °F
Feels Like 75 °F
N
2.7
Wind Variable Wind from West

Today
High -- | Low -- °F
--% Chance of Precip.
Yesterday
High -- | Low -- °F
Precip. -- in
5:33 AM 7:50 PM
Waxing Crescent, 50% visible
Pressure 30.22 in
Visibility 10.0 miles
Clouds Scattered Clouds 2200 ft
Mostly Cloudy 2700 ft
Mostly Cloudy 3700 ft
Heat Index 75 °F
Dew Point 67 °F
Humidity 78%
Rainfall 0.00 in
Snow Depth Not available.
UV 6 out of 12
Pollen 3.20 out of 12
Air Quality Not available.
Flu Activity Sporadic
METAR KTHA 251815Z AUTO 19005KT 10SM SCT022 BKN027 BKN037 22/18 A3022 RMK

More Conditions Fewer Conditions

Pressure 30.22 in
Visibility 10.0 miles
Clouds Scattered Clouds 2200 ft
Mostly Cloudy 2700 ft
Mostly Cloudy 3700 ft
Heat Index 75 °F
Dew Point 67 °F
Humidity 78%
Rainfall 0.00 in
Snow Depth Not available.
UV 6 out of 12
Pollen 3.20 out of 12
Air Quality Not available.
Flu Activity Sporadic
METAR KTHA 251815Z AUTO 19005KT 10SM SCT022 BKN027 BKN037 22/18 A3022 RMK

More Conditions Fewer Conditions

10-Day Weather Forecast

Almanac

Astronomy

May. 25, 2015 Rise Set
Actual Time
Civil Twilight
Nautical Twilight
Astronomical Twilight
Moon
Length of Visible Light
Length of Day
Tomorrow will be .
, % of the Moon is Illuminated

Today's Extremes

State Highs State Lows

Community

WunderPhotos

Upload Photos

1,824,078 photos uploaded!

WunderBlogs® & News

Nearby

Air Quality

  Air Quality AQ Index Pollutant
Not available.

Snow Depth

Station Depth Elevation

Earthquake Activity

City Distance Mag. Time & Date
Minimum magnitude displayed is 2.5.

Coastal Water Temperatures

Place Temperature

Stations

Nearby Weather Stations

Station Location Temp. Windchill Dew Point Humidity Wind Precip. Elev Updated Type